sensor_id;sensor_type;location;lat;lon;timestamp;pressure;altitude;pressure_sealevel;temperature;humidity
30302;BME280;17111;52.130;5.028;2023-01-29T00:00:41;103119.63;;;15.85;48.42
30302;BME280;17111;52.130;5.028;2023-01-29T00:03:07;103110.72;;;15.85;48.39
30302;BME280;17111;52.130;5.028;2023-01-29T00:05:34;103110.78;;;15.83;47.45
30302;BME280;17111;52.130;5.028;2023-01-29T00:08:01;103099.34;;;15.81;47.81
30302;BME280;17111;52.130;5.028;2023-01-29T00:10:27;103094.06;;;15.79;48.32
30302;BME280;17111;52.130;5.028;2023-01-29T00:12:54;103082.50;;;15.79;47.62
30302;BME280;17111;52.130;5.028;2023-01-29T00:15:20;103089.66;;;15.78;47.21
30302;BME280;17111;52.130;5.028;2023-01-29T00:17:47;103090.63;;;15.77;48.32
30302;BME280;17111;52.130;5.028;2023-01-29T00:20:13;103085.28;;;15.77;47.30
30302;BME280;17111;52.130;5.028;2023-01-29T00:22:41;103084.41;;;15.77;47.14
30302;BME280;17111;52.130;5.028;2023-01-29T00:25:08;103085.28;;;15.77;47.77
30302;BME280;17111;52.130;5.028;2023-01-29T00:27:34;103087.00;;;15.78;47.92
30302;BME280;17111;52.130;5.028;2023-01-29T00:30:01;103088.03;;;15.76;47.41
30302;BME280;17111;52.130;5.028;2023-01-29T00:32:48;103094.25;;;15.76;48.24
30302;BME280;17111;52.130;5.028;2023-01-29T00:35:14;103095.16;;;15.75;47.62
30302;BME280;17111;52.130;5.028;2023-01-29T00:37:41;103089.75;;;15.77;47.26
30302;BME280;17111;52.130;5.028;2023-01-29T00:40:08;103089.81;;;15.75;47.41
30302;BME280;17111;52.130;5.028;2023-01-29T00:42:35;103080.03;;;15.76;47.34
30302;BME280;17111;52.130;5.028;2023-01-29T00:45:20;103073.88;;;15.74;47.54
30302;BME280;17111;52.130;5.028;2023-01-29T00:47:46;103064.03;;;15.74;48.09
30302;BME280;17111;52.130;5.028;2023-01-29T00:50:13;103063.19;;;15.74;47.94
30302;BME280;17111;52.130;5.028;2023-01-29T00:52:40;103066.81;;;15.73;47.42
30302;BME280;17111;52.130;5.028;2023-01-29T00:55:07;103069.53;;;15.71;47.30
30302;BME280;17111;52.130;5.028;2023-01-29T00:57:36;103072.22;;;15.71;47.40
30302;BME280;17111;52.130;5.028;2023-01-29T01:00:07;103072.41;;;15.68;48.27
30302;BME280;17111;52.130;5.028;2023-01-29T01:02:34;103065.16;;;15.70;48.11
30302;BME280;17111;52.130;5.028;2023-01-29T01:05:19;103052.84;;;15.68;47.00
30302;BME280;17111;52.130;5.028;2023-01-29T01:07:47;103051.94;;;15.67;47.16
30302;BME280;17111;52.130;5.028;2023-01-29T01:10:20;103059.09;;;15.67;46.90
30302;BME280;17111;52.130;5.028;2023-01-29T01:15:30;103057.47;;;15.64;47.69
30302;BME280;17111;52.130;5.028;2023-01-29T01:17:58;103052.03;;;15.66;47.00
30302;BME280;17111;52.130;5.028;2023-01-29T01:20:28;103055.72;;;15.63;47.38
30302;BME280;17111;52.130;5.028;2023-01-29T01:22:55;103062.81;;;15.64;48.22
30302;BME280;17111;52.130;5.028;2023-01-29T01:25:23;103070.75;;;15.66;47.68
30302;BME280;17111;52.130;5.028;2023-01-29T01:27:55;103062.81;;;15.64;48.09
30302;BME280;17111;52.130;5.028;2023-01-29T01:30:22;103076.09;;;15.66;48.29
30302;BME280;17111;52.130;5.028;2023-01-29T01:32:49;103079.63;;;15.66;47.23
30302;BME280;17111;52.130;5.028;2023-01-29T01:35:16;103077.91;;;15.65;48.10
30302;BME280;17111;52.130;5.028;2023-01-29T01:37:43;103082.31;;;15.66;47.11
30302;BME280;17111;52.130;5.028;2023-01-29T01:40:14;103079.63;;;15.66;47.21
30302;BME280;17111;52.130;5.028;2023-01-29T01:42:50;103078.78;;;15.66;47.90
30302;BME280;17111;52.130;5.028;2023-01-29T01:47:55;103075.25;;;15.65;47.36
30302;BME280;17111;52.130;5.028;2023-01-29T01:50:40;103069.94;;;15.64;47.45
30302;BME280;17111;52.130;5.028;2023-01-29T01:53:11;103065.47;;;15.64;48.13
30302;BME280;17111;52.130;5.028;2023-01-29T01:55:45;103071.75;;;15.63;47.90
30302;BME280;17111;52.130;5.028;2023-01-29T01:58:22;103071.75;;;15.63;47.66
30302;BME280;17111;52.130;5.028;2023-01-29T02:00:50;103075.28;;;15.64;47.46
30302;BME280;17111;52.130;5.028;2023-01-29T02:03:18;103076.22;;;15.63;48.16
30302;BME280;17111;52.130;5.028;2023-01-29T02:06:06;103071.84;;;15.62;47.54
30302;BME280;17111;52.130;5.028;2023-01-29T02:08:57;103065.63;;;15.61;47.85
30302;BME280;17111;52.130;5.028;2023-01-29T02:11:42;103072.78;;;15.61;47.50
30302;BME280;17111;52.130;5.028;2023-01-29T02:14:09;103071.03;;;15.60;47.47
30302;BME280;17111;52.130;5.028;2023-01-29T02:16:37;103071.03;;;15.60;47.99
30302;BME280;17111;52.130;5.028;2023-01-29T02:19:10;103073.81;;;15.58;47.56
30302;BME280;17111;52.130;5.028;2023-01-29T02:27:08;103064.84;;;15.59;47.59
30302;BME280;17111;52.130;5.028;2023-01-29T02:32:37;103066.81;;;15.55;47.84
30302;BME280;17111;52.130;5.028;2023-01-29T02:35:22;103074.81;;;15.55;47.26
30302;BME280;17111;52.130;5.028;2023-01-29T02:43:45;103068.63;;;15.55;47.63
30302;BME280;17111;52.130;5.028;2023-01-29T02:49:16;103071.13;;;15.58;47.81
30302;BME280;17111;52.130;5.028;2023-01-29T02:54:26;103070.38;;;15.56;48.22
30302;BME280;17111;52.130;5.028;2023-01-29T02:56:57;103069.41;;;15.57;48.11
30302;BME280;17111;52.130;5.028;2023-01-29T02:59:32;103062.34;;;15.56;47.27
30302;BME280;17111;52.130;5.028;2023-01-29T03:02:14;103067.69;;;15.56;47.56
30302;BME280;17111;52.130;5.028;2023-01-29T03:04:47;103067.69;;;15.56;47.36
30302;BME280;17111;52.130;5.028;2023-01-29T03:07:24;103065.94;;;15.55;48.12
30302;BME280;17111;52.130;5.028;2023-01-29T03:10:17;103055.25;;;15.55;48.29
30302;BME280;17111;52.130;5.028;2023-01-29T03:12:59;103057.06;;;15.54;48.18
30302;BME280;17111;52.130;5.028;2023-01-29T03:15:31;103049.06;;;15.54;47.69
30302;BME280;17111;52.130;5.028;2023-01-29T03:18:08;103050.00;;;15.53;47.80
30302;BME280;17111;52.130;5.028;2023-01-29T03:20:45;103053.63;;;15.52;48.16
30302;BME280;17111;52.130;5.028;2023-01-29T03:25:52;103053.63;;;15.52;47.44
30302;BME280;17111;52.130;5.028;2023-01-29T03:28:39;103042.94;;;15.52;47.08
30302;BME280;17111;52.130;5.028;2023-01-29T03:31:26;103041.19;;;15.51;46.95
30302;BME280;17111;52.130;5.028;2023-01-29T03:34:15;103027.94;;;15.50;48.02
30302;BME280;17111;52.130;5.028;2023-01-29T03:36:57;103027.16;;;15.48;48.12
30302;BME280;17111;52.130;5.028;2023-01-29T03:39:27;103026.13;;;15.50;47.96
30302;BME280;17111;52.130;5.028;2023-01-29T03:50:38;103016.69;;;15.43;47.57
30302;BME280;17111;52.130;5.028;2023-01-29T03:53:30;103021.19;;;15.43;48.13
30302;BME280;17111;52.130;5.028;2023-01-29T03:56:22;103012.41;;;15.41;46.87
30302;BME280;17111;52.130;5.028;2023-01-29T03:59:14;103002.47;;;15.43;47.86
30302;BME280;17111;52.130;5.028;2023-01-29T04:01:47;103015.84;;;15.43;46.73
30302;BME280;17111;52.130;5.028;2023-01-29T04:04:24;103001.72;;;15.41;47.94
30302;BME280;17111;52.130;5.028;2023-01-29T04:06:54;102998.19;;;15.40;47.19
30302;BME280;17111;52.130;5.028;2023-01-29T04:09:29;102993.75;;;15.39;47.68
30302;BME280;17111;52.130;5.028;2023-01-29T04:12:04;102986.69;;;15.38;47.87
30302;BME280;17111;52.130;5.028;2023-01-29T04:14:32;102999.91;;;15.41;46.93
30302;BME280;17111;52.130;5.028;2023-01-29T04:17:04;102999.03;;;15.41;46.91
30302;BME280;17111;52.130;5.028;2023-01-29T04:19:33;103003.53;;;15.40;46.74
30302;BME280;17111;52.130;5.028;2023-01-29T04:22:14;102993.84;;;15.38;46.77
30302;BME280;17111;52.130;5.028;2023-01-29T04:24:44;102993.84;;;15.38;47.65
30302;BME280;17111;52.130;5.028;2023-01-29T04:43:29;102972.81;;;15.31;46.69
30302;BME280;17111;52.130;5.028;2023-01-29T04:51:42;102963.06;;;15.30;47.50
30302;BME280;17111;52.130;5.028;2023-01-29T04:57:22;102954.28;;;15.28;47.42
30302;BME280;17111;52.130;5.028;2023-01-29T05:00:04;102952.53;;;15.27;47.62
30302;BME280;17111;52.130;5.028;2023-01-29T05:02:39;102948.00;;;15.29;47.17
30302;BME280;17111;52.130;5.028;2023-01-29T05:05:07;102948.94;;;15.28;47.77
30302;BME280;17111;52.130;5.028;2023-01-29T05:07:36;102948.09;;;15.28;47.11
30302;BME280;17111;52.130;5.028;2023-01-29T05:10:06;102949.81;;;15.29;47.41
30302;BME280;17111;52.130;5.028;2023-01-29T05:12:35;102944.53;;;15.27;46.97
30302;BME280;17111;52.130;5.028;2023-01-29T05:15:08;102948.09;;;15.28;47.25
30302;BME280;17111;52.130;5.028;2023-01-29T05:17:35;102941.84;;;15.27;47.63
30302;BME280;17111;52.130;5.028;2023-01-29T05:20:02;102950.75;;;15.28;46.60
30302;BME280;17111;52.130;5.028;2023-01-29T05:22:28;102948.09;;;15.28;47.89
30302;BME280;17111;52.130;5.028;2023-01-29T05:24:55;102952.53;;;15.27;46.96
30302;BME280;17111;52.130;5.028;2023-01-29T05:27:29;102958.78;;;15.28;47.71
30302;BME280;17111;52.130;5.028;2023-01-29T05:30:15;102949.81;;;15.29;47.28
30302;BME280;17111;52.130;5.028;2023-01-29T05:32:42;102945.41;;;15.28;47.89
30302;BME280;17111;52.130;5.028;2023-01-29T05:35:09;102947.13;;;15.29;47.78
30302;BME280;17111;52.130;5.028;2023-01-29T05:37:35;102938.25;;;15.28;46.82
30302;BME280;17111;52.130;5.028;2023-01-29T05:40:02;102942.75;;;15.28;47.36
30302;BME280;17111;52.130;5.028;2023-01-29T05:42:29;102939.19;;;15.27;47.79
30302;BME280;17111;52.130;5.028;2023-01-29T05:44:56;102936.50;;;15.27;47.09
30302;BME280;17111;52.130;5.028;2023-01-29T05:47:22;102945.47;;;15.26;46.84
30302;BME280;17111;52.130;5.028;2023-01-29T05:49:49;102949.09;;;15.25;47.26
30302;BME280;17111;52.130;5.028;2023-01-29T05:52:15;102945.59;;;15.25;46.87
30302;BME280;17111;52.130;5.028;2023-01-29T05:54:42;102941.19;;;15.24;47.38
30302;BME280;17111;52.130;5.028;2023-01-29T05:57:09;102942.13;;;15.23;46.70
30302;BME280;17111;52.130;5.028;2023-01-29T05:59:35;102934.19;;;15.21;47.51
30302;BME280;17111;52.130;5.028;2023-01-29T06:02:02;102932.38;;;15.22;46.75
30302;BME280;17111;52.130;5.028;2023-01-29T06:04:28;102927.03;;;15.22;46.71
30302;BME280;17111;52.130;5.028;2023-01-29T06:06:55;102921.78;;;15.20;47.21
30302;BME280;17111;52.130;5.028;2023-01-29T06:09:21;102938.69;;;15.21;47.25
30302;BME280;17111;52.130;5.028;2023-01-29T06:11:48;102919.13;;;15.20;47.34
30302;BME280;17111;52.130;5.028;2023-01-29T06:14:14;102912.03;;;15.19;47.15
30302;BME280;17111;52.130;5.028;2023-01-29T06:16:41;102920.16;;;15.18;47.39
30302;BME280;17111;52.130;5.028;2023-01-29T06:19:07;102919.28;;;15.17;47.56
30302;BME280;17111;52.130;5.028;2023-01-29T06:21:34;102920.25;;;15.16;47.29
30302;BME280;17111;52.130;5.028;2023-01-29T06:24:00;102917.56;;;15.16;47.34
30302;BME280;17111;52.130;5.028;2023-01-29T06:26:27;102912.22;;;15.16;47.45
30302;BME280;17111;52.130;5.028;2023-01-29T06:28:54;102896.25;;;15.15;47.59
30302;BME280;17111;52.130;5.028;2023-01-29T06:31:20;102899.88;;;15.14;47.37
30302;BME280;17111;52.130;5.028;2023-01-29T06:34:03;102896.38;;;15.13;46.82
30302;BME280;17111;52.130;5.028;2023-01-29T06:36:30;102892.84;;;15.13;47.36
30302;BME280;17111;52.130;5.028;2023-01-29T06:38:56;102902.66;;;15.12;46.85
30302;BME280;17111;52.130;5.028;2023-01-29T06:41:23;102891.97;;;15.12;47.17
30302;BME280;17111;52.130;5.028;2023-01-29T06:43:51;102897.31;;;15.12;47.05
30302;BME280;17111;52.130;5.028;2023-01-29T06:46:17;102897.31;;;15.12;47.11
30302;BME280;17111;52.130;5.028;2023-01-29T06:48:44;102895.56;;;15.11;47.08
30302;BME280;17111;52.130;5.028;2023-01-29T06:51:10;102901.88;;;15.10;47.04
30302;BME280;17111;52.130;5.028;2023-01-29T06:53:38;102905.41;;;15.11;47.08
30302;BME280;17111;52.130;5.028;2023-01-29T06:56:05;102902.81;;;15.09;46.15
30302;BME280;17111;52.130;5.028;2023-01-29T06:58:32;102905.41;;;15.11;46.97
30302;BME280;17111;52.130;5.028;2023-01-29T07:01:09;102901.97;;;15.09;47.03
30302;BME280;17111;52.130;5.028;2023-01-29T07:03:50;102894.91;;;15.08;46.31
30302;BME280;17111;52.130;5.028;2023-01-29T07:06:17;102898.44;;;15.08;46.37
30302;BME280;17111;52.130;5.028;2023-01-29T07:08:44;102892.22;;;15.08;47.03
30302;BME280;17111;52.130;5.028;2023-01-29T07:11:11;102895.81;;;15.06;46.29
30302;BME280;17111;52.130;5.028;2023-01-29T07:13:38;102883.31;;;15.07;47.03
30302;BME280;17111;52.130;5.028;2023-01-29T07:16:05;102887.91;;;15.05;46.95
30302;BME280;17111;52.130;5.028;2023-01-29T07:18:32;102887.91;;;15.05;46.11
30302;BME280;17111;52.130;5.028;2023-01-29T07:21:03;102894.22;;;15.04;46.96
30302;BME280;17111;52.130;5.028;2023-01-29T07:23:30;102892.47;;;15.03;46.31
30302;BME280;17111;52.130;5.028;2023-01-29T07:26:00;102898.75;;;15.02;46.88
30302;BME280;17111;52.130;5.028;2023-01-29T07:28:27;102900.56;;;15.01;46.97
30302;BME280;17111;52.130;5.028;2023-01-29T07:30:57;102900.66;;;15.00;45.92
30302;BME280;17111;52.130;5.028;2023-01-29T07:33:24;102904.19;;;15.00;46.87
30302;BME280;17111;52.130;5.028;2023-01-29T07:35:52;102894.44;;;14.99;46.86
30302;BME280;17111;52.130;5.028;2023-01-29T07:38:18;102893.56;;;14.99;46.29
30302;BME280;17111;52.130;5.028;2023-01-29T07:40:45;102894.53;;;14.98;46.62
30302;BME280;17111;52.130;5.028;2023-01-29T07:43:12;102890.13;;;14.97;46.25
30302;BME280;17111;52.130;5.028;2023-01-29T07:45:39;102884.78;;;14.97;46.25
30302;BME280;17111;52.130;5.028;2023-01-29T07:48:08;102875.94;;;14.96;46.20
30302;BME280;17111;52.130;5.028;2023-01-29T07:50:36;102875.94;;;14.96;45.96
30302;BME280;17111;52.130;5.028;2023-01-29T07:53:03;102876.84;;;14.95;46.66
30302;BME280;17111;52.130;5.028;2023-01-29T07:55:30;102873.31;;;14.95;45.90
30302;BME280;17111;52.130;5.028;2023-01-29T07:58:01;102874.28;;;14.94;46.90
30302;BME280;17111;52.130;5.028;2023-01-29T08:00:29;102881.44;;;14.93;45.81
30302;BME280;17111;52.130;5.028;2023-01-29T08:03:05;102875.28;;;14.91;45.94
30302;BME280;17111;52.130;5.028;2023-01-29T08:05:32;102856.53;;;14.93;46.14
30302;BME280;17111;52.130;5.028;2023-01-29T08:07:59;102858.34;;;14.92;45.69
30302;BME280;17111;52.130;5.028;2023-01-29T08:10:35;102857.50;;;14.92;46.73
30302;BME280;17111;52.130;5.028;2023-01-29T08:13:04;102857.56;;;14.90;46.23
30302;BME280;17111;52.130;5.028;2023-01-29T08:15:33;102862.03;;;14.90;46.69
30302;BME280;17111;52.130;5.028;2023-01-29T08:18:03;102857.66;;;14.89;46.60
30302;BME280;17111;52.130;5.028;2023-01-29T08:20:30;102856.78;;;14.88;46.42
30302;BME280;17111;52.130;5.028;2023-01-29T08:23:01;102850.59;;;14.88;46.64
30302;BME280;17111;52.130;5.028;2023-01-29T08:25:28;102853.25;;;14.88;45.84
30302;BME280;17111;52.130;5.028;2023-01-29T08:27:56;102861.34;;;14.86;46.20
30302;BME280;17111;52.130;5.028;2023-01-29T08:30:25;102861.34;;;14.86;46.23
30302;BME280;17111;52.130;5.028;2023-01-29T08:32:52;102852.47;;;14.86;45.52
30302;BME280;17111;52.130;5.028;2023-01-29T08:35:18;102853.44;;;14.85;46.27
30302;BME280;17111;52.130;5.028;2023-01-29T08:37:56;102846.44;;;14.82;45.69
30302;BME280;17111;52.130;5.028;2023-01-29T08:40:25;102851.63;;;14.85;45.69
30302;BME280;17111;52.130;5.028;2023-01-29T08:42:57;102848.09;;;14.85;45.69
30302;BME280;17111;52.130;5.028;2023-01-29T08:45:27;102839.13;;;14.86;45.81
30302;BME280;17111;52.130;5.028;2023-01-29T08:47:54;102835.59;;;14.85;45.58
30302;BME280;17111;52.130;5.028;2023-01-29T08:50:20;102835.69;;;14.84;45.60
30302;BME280;17111;52.130;5.028;2023-01-29T08:52:47;102830.34;;;14.84;45.96
30302;BME280;17111;52.130;5.028;2023-01-29T08:55:14;102837.41;;;14.85;46.12
30302;BME280;17111;52.130;5.028;2023-01-29T08:57:41;102831.28;;;14.82;45.42
30302;BME280;17111;52.130;5.028;2023-01-29T09:00:08;102830.34;;;14.84;46.48
30302;BME280;17111;52.130;5.028;2023-01-29T09:02:36;102831.22;;;14.84;46.47
30302;BME280;17111;52.130;5.028;2023-01-29T09:05:02;102830.34;;;14.84;46.22
30302;BME280;17111;52.130;5.028;2023-01-29T09:07:29;102832.13;;;14.83;46.03
30302;BME280;17111;52.130;5.028;2023-01-29T09:09:55;102823.28;;;14.82;45.55
30302;BME280;17111;52.130;5.028;2023-01-29T09:12:22;102833.09;;;14.82;45.42
30302;BME280;17111;52.130;5.028;2023-01-29T09:14:49;102830.34;;;14.84;45.65
30302;BME280;17111;52.130;5.028;2023-01-29T09:17:15;102818.03;;;14.81;46.21
30302;BME280;17111;52.130;5.028;2023-01-29T09:19:42;102825.06;;;14.82;46.08
30302;BME280;17111;52.130;5.028;2023-01-29T09:22:09;102826.03;;;14.81;46.18
30302;BME280;17111;52.130;5.028;2023-01-29T09:24:37;102834.91;;;14.81;46.18
30302;BME280;17111;52.130;5.028;2023-01-29T09:27:04;102816.22;;;14.81;45.49
30302;BME280;17111;52.130;5.028;2023-01-29T09:29:31;102822.41;;;14.82;45.77
30302;BME280;17111;52.130;5.028;2023-01-29T09:32:02;102832.13;;;14.83;45.31
30302;BME280;17111;52.130;5.028;2023-01-29T09:34:28;102828.59;;;14.82;45.31
30302;BME280;17111;52.130;5.028;2023-01-29T09:36:55;102822.41;;;14.82;45.51
30302;BME280;17111;52.130;5.028;2023-01-29T09:39:22;102833.03;;;14.84;45.76
30302;BME280;17111;52.130;5.028;2023-01-29T09:42:21;102829.56;;;14.81;46.04
30302;BME280;17111;52.130;5.028;2023-01-29T09:45:05;102827.75;;;14.82;46.10
30302;BME280;17111;52.130;5.028;2023-01-29T09:47:36;102834.81;;;14.83;45.63
30302;BME280;17111;52.130;5.028;2023-01-29T09:50:22;102832.22;;;14.81;46.25
30302;BME280;17111;52.130;5.028;2023-01-29T09:53:05;102833.94;;;14.82;45.35
30302;BME280;17111;52.130;5.028;2023-01-29T09:55:42;102832.13;;;14.83;45.42
30302;BME280;17111;52.130;5.028;2023-01-29T09:58:36;102825.00;;;14.84;45.50
30302;BME280;17111;52.130;5.028;2023-01-29T10:04:12;102825.00;;;14.84;45.76
30302;BME280;17111;52.130;5.028;2023-01-29T10:12:31;102809.16;;;14.80;45.86
30302;BME280;17111;52.130;5.028;2023-01-29T10:15:30;102814.34;;;14.84;45.52
30302;BME280;17111;52.130;5.028;2023-01-29T10:18:26;102820.53;;;14.84;45.67
30302;BME280;17111;52.130;5.028;2023-01-29T10:23:34;102809.84;;;14.84;46.04
30302;BME280;17111;52.130;5.028;2023-01-29T10:26:03;102803.66;;;14.84;45.26
30302;BME280;17111;52.130;5.028;2023-01-29T10:28:44;102800.09;;;14.83;45.50
30302;BME280;17111;52.130;5.028;2023-01-29T10:31:23;102788.50;;;14.84;45.58
30302;BME280;17111;52.130;5.028;2023-01-29T10:33:56;102785.72;;;14.86;45.53
30302;BME280;17111;52.130;5.028;2023-01-29T10:36:35;102786.75;;;14.83;45.27
30302;BME280;17111;52.130;5.028;2023-01-29T10:39:03;102784.00;;;14.85;45.33
30302;BME280;17111;52.130;5.028;2023-01-29T10:44:21;102779.63;;;14.84;46.08
30302;BME280;17111;52.130;5.028;2023-01-29T10:59:03;102755.59;;;14.84;45.87
30302;BME280;17111;52.130;5.028;2023-01-29T11:01:33;102760.06;;;14.83;45.56
30302;BME280;17111;52.130;5.028;2023-01-29T11:04:02;102753.84;;;14.82;45.99
30302;BME280;17111;52.130;5.028;2023-01-29T11:06:34;102749.47;;;14.81;45.23
30302;BME280;17111;52.130;5.028;2023-01-29T11:11:46;102744.13;;;14.81;45.91
30302;BME280;17111;52.130;5.028;2023-01-29T11:14:20;102743.19;;;14.82;46.28
30302;BME280;17111;52.130;5.028;2023-01-29T11:16:48;102737.78;;;14.84;45.33
30302;BME280;17111;52.130;5.028;2023-01-29T11:19:15;102735.97;;;14.85;45.26
30302;BME280;17111;52.130;5.028;2023-01-29T11:21:59;102740.44;;;14.84;45.36
30302;BME280;17111;52.130;5.028;2023-01-29T11:24:27;102729.56;;;14.87;45.55
30302;BME280;17111;52.130;5.028;2023-01-29T11:26:56;102730.47;;;14.88;45.45
30302;BME280;17111;52.130;5.028;2023-01-29T11:30:03;102732.16;;;14.89;46.23
30302;BME280;17111;52.130;5.028;2023-01-29T11:37:22;102720.44;;;14.91;45.42
30302;BME280;17111;52.130;5.028;2023-01-29T11:39:56;102723.03;;;14.93;46.17
30302;BME280;17111;52.130;5.028;2023-01-29T11:42:23;102715.03;;;14.93;45.83
30302;BME280;17111;52.130;5.028;2023-01-29T11:44:49;102710.53;;;14.93;45.92
30302;BME280;17111;52.130;5.028;2023-01-29T11:47:18;102708.72;;;14.94;45.85
30302;BME280;17111;52.130;5.028;2023-01-29T11:49:56;102712.34;;;14.93;45.25
30302;BME280;17111;52.130;5.028;2023-01-29T11:52:32;102705.22;;;14.93;45.56
30302;BME280;17111;52.130;5.028;2023-01-29T11:55:03;102700.72;;;14.94;45.14
30302;BME280;17111;52.130;5.028;2023-01-29T11:57:32;102683.84;;;14.93;46.17
30302;BME280;17111;52.130;5.028;2023-01-29T12:02:48;102676.69;;;14.94;45.96
30302;BME280;17111;52.130;5.028;2023-01-29T12:05:21;102684.59;;;14.95;45.23
30302;BME280;17111;52.130;5.028;2023-01-29T12:07:53;102671.34;;;14.94;46.17
30302;BME280;17111;52.130;5.028;2023-01-29T12:10:34;102666.00;;;14.94;45.40
30302;BME280;17111;52.130;5.028;2023-01-29T12:15:38;102659.66;;;14.96;45.37
30302;BME280;17111;52.130;5.028;2023-01-29T12:20:53;102647.22;;;14.95;45.07
30302;BME280;17111;52.130;5.028;2023-01-29T12:23:34;102642.84;;;14.94;46.17
30302;BME280;17111;52.130;5.028;2023-01-29T12:28:36;102625.88;;;14.95;46.29
30302;BME280;17111;52.130;5.028;2023-01-29T12:31:35;102623.19;;;14.95;45.93
30302;BME280;17111;52.130;5.028;2023-01-29T12:37:08;102619.66;;;14.95;45.37
30302;BME280;17111;52.130;5.028;2023-01-29T12:39:37;102606.31;;;14.95;45.90
30302;BME280;17111;52.130;5.028;2023-01-29T12:42:13;102610.81;;;14.94;45.56
30302;BME280;17111;52.130;5.028;2023-01-29T12:45:02;102591.34;;;14.92;45.38
30302;BME280;17111;52.130;5.028;2023-01-29T12:48:00;102587.72;;;14.93;45.77
30302;BME280;17111;52.130;5.028;2023-01-29T12:50:37;102576.09;;;14.94;45.63
30302;BME280;17111;52.130;5.028;2023-01-29T12:53:26;102563.59;;;14.95;45.87
30302;BME280;17111;52.130;5.028;2023-01-29T12:55:59;102550.19;;;14.96;45.57
30302;BME280;17111;52.130;5.028;2023-01-29T12:58:42;102546.66;;;14.96;46.46
30302;BME280;17111;52.130;5.028;2023-01-29T13:01:16;102543.78;;;14.99;46.38
30302;BME280;17111;52.130;5.028;2023-01-29T13:06:28;102526.72;;;15.01;46.54
30302;BME280;17111;52.130;5.028;2023-01-29T13:08:59;102511.56;;;15.02;45.99
30302;BME280;17111;52.130;5.028;2023-01-29T13:12:14;102504.50;;;15.01;45.53
30302;BME280;17111;52.130;5.028;2023-01-29T13:14:47;102503.38;;;15.05;45.84
30302;BME280;17111;52.130;5.028;2023-01-29T13:17:24;102502.41;;;15.06;45.99
30302;BME280;17111;52.130;5.028;2023-01-29T13:19:54;102503.19;;;15.08;45.76
30302;BME280;17111;52.130;5.028;2023-01-29T13:22:25;102500.50;;;15.08;46.19
30302;BME280;17111;52.130;5.028;2023-01-29T13:24:53;102492.50;;;15.08;45.35
30302;BME280;17111;52.130;5.028;2023-01-29T13:27:32;102498.59;;;15.10;45.48
30302;BME280;17111;52.130;5.028;2023-01-29T13:29:59;102485.25;;;15.10;45.79
30302;BME280;17111;52.130;5.028;2023-01-29T13:32:28;102489.63;;;15.11;45.24
30302;BME280;17111;52.130;5.028;2023-01-29T13:34:58;102483.34;;;15.12;45.58
30302;BME280;17111;52.130;5.028;2023-01-29T13:37:32;102474.38;;;15.13;45.71
30302;BME280;17111;52.130;5.028;2023-01-29T13:40:00;102468.06;;;15.14;46.46
30302;BME280;17111;52.130;5.028;2023-01-29T13:42:47;102470.00;;;15.12;45.75
30302;BME280;17111;52.130;5.028;2023-01-29T13:45:24;102469.88;;;15.14;46.46
30302;BME280;17111;52.130;5.028;2023-01-29T13:47:51;102456.53;;;15.14;46.42
30302;BME280;17111;52.130;5.028;2023-01-29T13:50:34;102456.53;;;15.14;46.27
30302;BME280;17111;52.130;5.028;2023-01-29T13:53:02;102449.56;;;15.11;46.08
30302;BME280;17111;52.130;5.028;2023-01-29T13:55:32;102453.75;;;15.15;46.22
30302;BME280;17111;52.130;5.028;2023-01-29T14:01:03;102440.63;;;15.12;46.29
30302;BME280;17111;52.130;5.028;2023-01-29T14:06:37;102447.84;;;15.10;45.50
30302;BME280;17111;52.130;5.028;2023-01-29T14:09:31;102438.13;;;15.09;45.33
30302;BME280;17111;52.130;5.028;2023-01-29T14:11:58;102440.69;;;15.11;46.10
30302;BME280;17111;52.130;5.028;2023-01-29T14:15:02;102438.25;;;15.08;46.37
30302;BME280;17111;52.130;5.028;2023-01-29T14:17:29;102431.94;;;15.09;46.18
30302;BME280;17111;52.130;5.028;2023-01-29T14:20:16;102432.78;;;15.09;45.96
30302;BME280;17111;52.130;5.028;2023-01-29T14:22:53;102425.75;;;15.08;46.30
30302;BME280;17111;52.130;5.028;2023-01-29T14:25:28;102426.50;;;15.10;46.17
30302;BME280;17111;52.130;5.028;2023-01-29T14:27:56;102431.84;;;15.10;45.81
30302;BME280;17111;52.130;5.028;2023-01-29T14:30:25;102427.34;;;15.11;46.33
30302;BME280;17111;52.130;5.028;2023-01-29T14:32:53;102423.81;;;15.10;45.85
30302;BME280;17111;52.130;5.028;2023-01-29T14:35:23;102421.16;;;15.10;45.50
30302;BME280;17111;52.130;5.028;2023-01-29T14:37:53;102423.81;;;15.10;46.11
30302;BME280;17111;52.130;5.028;2023-01-29T14:40:24;102405.97;;;15.11;45.60
30302;BME280;17111;52.130;5.028;2023-01-29T14:43:01;102406.09;;;15.09;45.37
30302;BME280;17111;52.130;5.028;2023-01-29T14:53:23;102397.13;;;15.10;46.37
30302;BME280;17111;52.130;5.028;2023-01-29T14:56:09;102393.47;;;15.11;46.23
30302;BME280;17111;52.130;5.028;2023-01-29T14:58:42;102395.22;;;15.12;45.32
30302;BME280;17111;52.130;5.028;2023-01-29T15:01:37;102396.16;;;15.11;46.32
30302;BME280;17111;52.130;5.028;2023-01-29T15:04:25;102392.56;;;15.12;46.18
30302;BME280;17111;52.130;5.028;2023-01-29T15:07:01;102388.91;;;15.13;45.32
30302;BME280;17111;52.130;5.028;2023-01-29T15:12:28;102388.13;;;15.11;45.47
30302;BME280;17111;52.130;5.028;2023-01-29T15:20:38;102383.75;;;15.10;45.49
30302;BME280;17111;52.130;5.028;2023-01-29T15:23:25;102382.06;;;15.09;45.46
30302;BME280;17111;52.130;5.028;2023-01-29T15:25:55;102383.75;;;15.10;46.18
30302;BME280;17111;52.130;5.028;2023-01-29T15:28:23;102371.38;;;15.09;46.55
30302;BME280;17111;52.130;5.028;2023-01-29T15:30:53;102369.75;;;15.06;45.79